Time;durP1;ratioP1;P1;durP2;ratioP2;P2;SDS_P1;SDS_P2;PMS_P1;PMS_P2;Temp;Humidity;BMP_temperature;BMP_pressure;BME280_temperature;BME280_humidity;BME280_pressure;Samples;Min_cycle;Max_cycle;Signal;HPM_P1;HPM_P2
2023/10/21 00:02:23;;;;;;;;;;;;;;;;;;5013624;28;20440;-69
2023/10/21 00:04:49;;;;;;;;;;;;;;;;;;5012891;28;20014;-69
2023/10/21 00:07:15;;;;;;;;;;;;;;;;;;5013669;28;20463;-68
2023/10/21 00:09:41;;;;;;;;;;;;;;;;;;5013686;28;20017;-68
2023/10/21 00:12:07;;;;;;;;;;;;;;;;;;5013588;28;19990;-67
2023/10/21 00:14:33;;;;;;;;;;;;;;;;;;5013604;28;20050;-69
2023/10/21 00:16:59;;;;;;;;;;;;;;;;;;5013501;28;20118;-68
2023/10/21 00:19:25;;;;;;;;;;;;;;;;;;5045292;28;20032;-69
2023/10/21 00:21:53;;;;;;;;;;;;;;;;;;5012684;28;19994;-69
2023/10/21 00:24:19;;;;;;;;;;;;;;;;;;5013150;28;20001;-69
2023/10/21 00:26:47;;;;;;;;;;;;;;;;;;5013288;28;20077;-69
2023/10/21 00:29:13;;;;;;;;;;;;;;;;;;5012454;28;20015;-68
2023/10/21 00:31:39;;;;;;;;;;;;;;;;;;5013141;28;19995;-69
2023/10/21 00:34:05;;;;;;;;;;;;;;;;;;5013236;28;20089;-69
2023/10/21 00:36:31;;;;;;;;;;;;;;;;;;5013216;28;19990;-69
2023/10/21 00:38:56;;;;;;;;;;;;;;;;;;5013020;28;19986;-68
2023/10/21 00:41:22;;;;;;;;;;;;;;;;;;5012784;28;19994;-69
2023/10/21 00:43:48;;;;;;;;;;;;;;;;;;5044754;28;19991;-70
2023/10/21 00:46:15;;;;;;;;;;;;;;;;;;5012141;28;20037;-67
2023/10/21 00:48:41;;;;;;;;;;;;;;;;;;5012589;28;20521;-69
2023/10/21 00:51:07;;;;;;;;;;;;;;;;;;5012932;28;20078;-69
2023/10/21 00:53:33;;;;;;;;;;;;;;;;;;5012405;28;19986;-68
2023/10/21 00:55:59;;;;;;;;;;;;;;;;;;5012912;28;20009;-69
2023/10/21 00:58:27;;;;;;;;;;;;;;;;;;5013011;28;19990;-69
2023/10/21 01:00:53;;;;;;;;;;;;;;;;;;5012670;28;20041;-68
2023/10/21 01:03:19;;;;;;;;;;;;;;;;;;5011830;28;19998;-67
2023/10/21 01:05:45;;;;;;;;;;;;;;;;;;5012487;28;20021;-70
2023/10/21 01:08:11;;;;;;;;;;;;;;;;;;5012554;28;19992;-69
2023/10/21 01:10:37;;;;;;;;;;;;;;;;;;5012271;28;20109;-69
2023/10/21 01:13:03;;;;;;;;;;;;;;;;;;5012559;28;19986;-68
2023/10/21 01:15:29;;;;;;;;;;;;;;;;;;5012615;28;19994;-68
2023/10/21 01:17:55;;;;;;;;;;;;;;;;;;5012262;28;20481;-69
2023/10/21 01:20:21;;;;;;;;;;;;;;;;;;5011447;28;20037;-69
2023/10/21 01:22:47;;;;;;;;;;;;;;;;;;5012227;28;19987;-69
2023/10/21 01:25:13;;;;;;;;;;;;;;;;;;5012088;28;20118;-68
2023/10/21 01:27:39;;;;;;;;;;;;;;;;;;5012123;28;19990;-69
2023/10/21 01:30:05;;;;;;;;;;;;;;;;;;5011977;28;20466;-68
2023/10/21 01:32:31;;;;;;;;;;;;;;;;;;5012119;28;20410;-69
2023/10/21 01:34:57;;;;;;;;;;;;;;;;;;5012099;28;19997;-69
2023/10/21 01:37:23;;;;;;;;;;;;;;;;;;5011709;28;19987;-68
2023/10/21 01:39:49;;;;;;;;;;;;;;;;;;5011188;28;20009;-70
2023/10/21 01:42:15;;;;;;;;;;;;;;;;;;5012182;28;20033;-69
2023/10/21 01:44:42;;;;;;;;;;;;;;;;;;5011909;28;20391;-70
2023/10/21 01:47:08;;;;;;;;;;;;;;;;;;5011622;28;20549;-69
2023/10/21 01:49:33;;;;;;;;;;;;;;;;;;5011671;28;20014;-71
2023/10/21 01:51:59;;;;;;;;;;;;;;;;;;5011205;28;20013;-69
2023/10/21 01:54:27;;;;;;;;;;;;;;;;;;5011613;28;20121;-70
2023/10/21 01:56:53;;;;;;;;;;;;;;;;;;5011345;28;20020;-69
2023/10/21 01:59:19;;;;;;;;;;;;;;;;;;5011973;28;20506;-70
2023/10/21 02:01:45;;;;;;;;;;;;;;;;;;5012035;28;20041;-70
2023/10/21 02:04:11;;;;;;;;;;;;;;;;;;5011912;28;20041;-70
2023/10/21 02:06:37;;;;;;;;;;;;;;;;;;5011605;28;20013;-69
2023/10/21 02:09:03;;;;;;;;;;;;;;;;;;5011749;28;20010;-69
2023/10/21 02:11:29;;;;;;;;;;;;;;;;;;5010943;28;19999;-70
2023/10/21 02:13:55;;;;;;;;;;;;;;;;;;5011720;28;20001;-69
2023/10/21 02:16:21;;;;;;;;;;;;;;;;;;5011694;28;20006;-70
2023/10/21 02:18:47;;;;;;;;;;;;;;;;;;5011644;28;20050;-71
2023/10/21 02:21:13;;;;;;;;;;;;;;;;;;5011541;28;19986;-69
2023/10/21 02:23:39;;;;;;;;;;;;;;;;;;5011522;28;20089;-70
2023/10/21 02:26:05;;;;;;;;;;;;;;;;;;5010893;28;19991;-69
2023/10/21 02:28:31;;;;;;;;;;;;;;;;;;5011454;28;20026;-71
2023/10/21 02:30:57;;;;;;;;;;;;;;;;;;5011681;28;20014;-70
2023/10/21 02:33:23;;;;;;;;;;;;;;;;;;5011568;28;19990;-69
2023/10/21 02:35:49;;;;;;;;;;;;;;;;;;5011685;28;19990;-71
2023/10/21 02:38:15;;;;;;;;;;;;;;;;;;5011404;28;20099;-70
2023/10/21 02:40:42;;;;;;;;;;;;;;;;;;5011610;28;20521;-70
2023/10/21 02:43:09;;;;;;;;;;;;;;;;;;5010745;28;20084;-70
2023/10/21 02:45:35;;;;;;;;;;;;;;;;;;5011187;28;19986;-70
2023/10/21 02:48:01;;;;;;;;;;;;;;;;;;5011264;28;20367;-70
2023/10/21 02:50:27;;;;;;;;;;;;;;;;;;5010865;28;20013;-71
2023/10/21 02:52:53;;;;;;;;;;;;;;;;;;5011268;28;20033;-68
2023/10/21 02:55:19;;;;;;;;;;;;;;;;;;5011256;28;19997;-70
2023/10/21 02:57:45;;;;;;;;;;;;;;;;;;5010360;28;20033;-70
2023/10/21 03:00:15;;;;;;;;;;;;;;;;;;5010794;28;20001;-69
2023/10/21 03:02:41;;;;;;;;;;;;;;;;;;5010786;28;20172;-69
2023/10/21 03:05:07;;;;;;;;;;;;;;;;;;5014642;28;20463;-69
2023/10/21 03:07:33;;;;;;;;;;;;;;;;;;5014765;28;20130;-71
2023/10/21 03:09:59;;;;;;;;;;;;;;;;;;5014438;28;20029;-70
2023/10/21 03:12:26;;;;;;;;;;;;;;;;;;5014671;28;20089;-68
2023/10/21 03:14:52;;;;;;;;;;;;;;;;;;5046177;28;20457;-68
2023/10/21 03:17:19;;;;;;;;;;;;;;;;;;5013684;28;20363;-70
2023/10/21 03:19:45;;;;;;;;;;;;;;;;;;5014448;28;20362;-72
2023/10/21 03:22:11;;;;;;;;;;;;;;;;;;5014323;28;19993;-71
2023/10/21 03:24:37;;;;;;;;;;;;;;;;;;5014390;28;19992;-72
2023/10/21 03:27:03;;;;;;;;;;;;;;;;;;5014335;28;19997;-75
2023/10/21 03:29:29;;;;;;;;;;;;;;;;;;5014231;28;20017;-75
2023/10/21 03:31:54;;;;;;;;;;;;;;;;;;5014319;28;19986;-73
2023/10/21 03:34:20;;;;;;;;;;;;;;;;;;5014500;28;20001;-74
2023/10/21 03:36:46;;;;;;;;;;;;;;;;;;5013279;28;19998;-74
2023/10/21 03:39:13;;;;;;;;;;;;;;;;;;5045955;28;20073;-74
2023/10/21 03:41:39;;;;;;;;;;;;;;;;;;5045884;28;19991;-73
2023/10/21 03:44:05;;;;;;;;;;;;;;;;;;5014010;28;19994;-74
2023/10/21 03:46:31;;;;;;;;;;;;;;;;;;5045859;28;20039;-73
2023/10/21 03:48:57;;;;;;;;;;;;;;;;;;5013774;28;20066;-74
2023/10/21 03:51:23;;;;;;;;;;;;;;;;;;5045040;28;20069;-74
2023/10/21 03:53:49;;;;;;;;;;;;;;;;;;5013939;28;19986;-74
2023/10/21 03:56:15;;;;;;;;;;;;;;;;;;5013898;28;20047;-73
2023/10/21 03:58:41;;;;;;;;;;;;;;;;;;5013838;28;20089;-75
2023/10/21 04:01:07;;;;;;;;;;;;;;;;;;5013919;28;20418;-74
2023/10/21 04:03:33;;;;;;;;;;;;;;;;;;5013785;28;19990;-75
2023/10/21 04:05:59;;;;;;;;;;;;;;;;;;5045212;28;20014;-73
2023/10/21 04:08:24;;;;;;;;;;;;;;;;;;5044405;28;20001;-73
2023/10/21 04:10:52;;;;;;;;;;;;;;;;;;5013566;28;20014;-73
2023/10/21 04:13:18;;;;;;;;;;;;;;;;;;5013620;28;19986;-75
2023/10/21 04:15:44;;;;;;;;;;;;;;;;;;5012906;28;20073;-74
2023/10/21 04:18:10;;;;;;;;;;;;;;;;;;5013539;28;19994;-74
2023/10/21 04:20:36;;;;;;;;;;;;;;;;;;5013340;28;19986;-74
2023/10/21 04:23:02;;;;;;;;;;;;;;;;;;5012460;28;19986;-74
2023/10/21 04:25:28;;;;;;;;;;;;;;;;;;5013186;28;19987;-74
2023/10/21 04:27:54;;;;;;;;;;;;;;;;;;5013277;28;19997;-75
2023/10/21 04:30:20;;;;;;;;;;;;;;;;;;5013057;28;20018;-74
2023/10/21 04:32:46;;;;;;;;;;;;;;;;;;5012947;28;19986;-74
2023/10/21 04:35:12;;;;;;;;;;;;;;;;;;5013121;28;19986;-75
2023/10/21 04:37:38;;;;;;;;;;;;;;;;;;5013154;28;19986;-76
2023/10/21 04:40:05;;;;;;;;;;;;;;;;;;5012262;28;19994;-73
2023/10/21 04:42:31;;;;;;;;;;;;;;;;;;5012908;28;20076;-73
2023/10/21 04:44:58;;;;;;;;;;;;;;;;;;5012815;28;20081;-72
2023/10/21 04:47:24;;;;;;;;;;;;;;;;;;5012507;28;20486;-74
2023/10/21 04:49:50;;;;;;;;;;;;;;;;;;5012884;28;20117;-74
2023/10/21 04:52:15;;;;;;;;;;;;;;;;;;5012799;28;19993;-75
2023/10/21 04:54:44;;;;;;;;;;;;;;;;;;5011897;28;20069;-76
2023/10/21 04:57:10;;;;;;;;;;;;;;;;;;5012630;28;19995;-75
2023/10/21 04:59:36;;;;;;;;;;;;;;;;;;5012686;28;19994;-75
2023/10/21 05:02:04;;;;;;;;;;;;;;;;;;5012803;28;20328;-76
2023/10/21 05:04:30;;;;;;;;;;;;;;;;;;5012656;28;20070;-75
2023/10/21 05:06:56;;;;;;;;;;;;;;;;;;5012568;28;20465;-75
2023/10/21 05:09:22;;;;;;;;;;;;;;;;;;5012424;28;20010;-74
2023/10/21 05:11:48;;;;;;;;;;;;;;;;;;5043347;28;19998;-75
2023/10/21 05:14:14;;;;;;;;;;;;;;;;;;5044273;28;20041;-74
2023/10/21 05:16:40;;;;;;;;;;;;;;;;;;5012212;28;19991;-74
2023/10/21 05:19:06;;;;;;;;;;;;;;;;;;5012294;28;19994;-74
2023/10/21 05:21:32;;;;;;;;;;;;;;;;;;5012269;28;19993;-73
2023/10/21 05:23:58;;;;;;;;;;;;;;;;;;5012151;28;20072;-75
2023/10/21 05:26:24;;;;;;;;;;;;;;;;;;5011496;28;20005;-75
2023/10/21 05:28:51;;;;;;;;;;;;;;;;;;5011334;28;20001;-74
2023/10/21 05:31:17;;;;;;;;;;;;;;;;;;5012000;28;19994;-74
2023/10/21 05:33:44;;;;;;;;;;;;;;;;;;5012296;28;20041;-73
2023/10/21 05:36:10;;;;;;;;;;;;;;;;;;5012467;28;19991;-74
2023/10/21 05:38:36;;;;;;;;;;;;;;;;;;5012145;28;19986;-74
2023/10/21 05:41:02;;;;;;;;;;;;;;;;;;5043950;28;19990;-74
2023/10/21 05:43:28;;;;;;;;;;;;;;;;;;5012106;28;19997;-75
2023/10/21 05:45:54;;;;;;;;;;;;;;;;;;5011424;28;19994;-74
2023/10/21 05:48:20;;;;;;;;;;;;;;;;;;5011965;28;20367;-74
2023/10/21 05:50:47;;;;;;;;;;;;;;;;;;5043884;28;20068;-74
2023/10/21 05:53:13;;;;;;;;;;;;;;;;;;5011956;28;20354;-76
2023/10/21 05:55:39;;;;;;;;;;;;;;;;;;5043585;28;19990;-75
2023/10/21 05:58:05;;;;;;;;;;;;;;;;;;5012084;28;20081;-76
2023/10/21 06:00:31;;;;;;;;;;;;;;;;;;5011125;28;19990;-76
2023/10/21 06:02:57;;;;;;;;;;;;;;;;;;5011727;28;20384;-75
2023/10/21 06:05:23;;;;;;;;;;;;;;;;;;5011705;28;20006;-76
2023/10/21 06:07:49;;;;;;;;;;;;;;;;;;5011880;28;20065;-76
2023/10/21 06:10:16;;;;;;;;;;;;;;;;;;5011635;28;20124;-77
2023/10/21 06:12:43;;;;;;;;;;;;;;;;;;5011728;28;19994;-76
2023/10/21 06:15:09;;;;;;;;;;;;;;;;;;5011827;28;19987;-76
2023/10/21 06:17:35;;;;;;;;;;;;;;;;;;5010822;28;20002;-75
2023/10/21 06:20:03;;;;;;;;;;;;;;;;;;5011628;28;19994;-76
2023/10/21 06:22:29;;;;;;;;;;;;;;;;;;5011855;28;20042;-75
2023/10/21 06:24:55;;;;;;;;;;;;;;;;;;5011371;28;20383;-75
2023/10/21 06:27:21;;;;;;;;;;;;;;;;;;5043549;28;20052;-76
2023/10/21 06:29:47;;;;;;;;;;;;;;;;;;5011558;28;20054;-75
2023/10/21 06:32:13;;;;;;;;;;;;;;;;;;5010847;28;20025;-77
2023/10/21 06:34:39;;;;;;;;;;;;;;;;;;5011489;28;19993;-76
2023/10/21 06:37:05;;;;;;;;;;;;;;;;;;5011497;28;19986;-76
2023/10/21 06:39:31;;;;;;;;;;;;;;;;;;5014945;28;19993;-77
2023/10/21 06:41:57;;;;;;;;;;;;;;;;;;5015410;28;20380;-76
2023/10/21 06:44:23;;;;;;;;;;;;;;;;;;5015249;28;19990;-74
2023/10/21 06:46:49;;;;;;;;;;;;;;;;;;5014984;28;19986;-76
2023/10/21 06:49:15;;;;;;;;;;;;;;;;;;5014562;28;20022;-75
2023/10/21 06:51:41;;;;;;;;;;;;;;;;;;5015169;28;19986;-74
2023/10/21 06:54:07;;;;;;;;;;;;;;;;;;5014972;28;20447;-74
2023/10/21 06:56:33;;;;;;;;;;;;;;;;;;5014965;28;19990;-74
2023/10/21 06:58:59;;;;;;;;;;;;;;;;;;5015114;28;20023;-75
2023/10/21 07:01:25;;;;;;;;;;;;;;;;;;5015089;28;19987;-74
2023/10/21 07:03:52;;;;;;;;;;;;;;;;;;5013963;28;20101;-75
2023/10/21 07:06:18;;;;;;;;;;;;;;;;;;5014882;28;20002;-74
2023/10/21 07:08:46;;;;;;;;;;;;;;;;;;5014773;28;20466;-75
2023/10/21 07:11:12;;;;;;;;;;;;;;;;;;5010977;28;20125;-73
2023/10/21 07:13:38;;;;;;;;;;;;;;;;;;5008237;28;19998;-83
2023/10/21 07:16:05;;;;;;;;;;;;;;;;;;5014393;28;19990;-73
2023/10/21 07:18:31;;;;;;;;;;;;;;;;;;5014506;28;19998;-75
2023/10/21 07:20:57;;;;;;;;;;;;;;;;;;5028831;28;20041;-74
2023/10/21 07:23:23;;;;;;;;;;;;;;;;;;5013743;28;20435;-74
2023/10/21 07:25:49;;;;;;;;;;;;;;;;;;5014029;28;19990;-74
2023/10/21 07:28:15;;;;;;;;;;;;;;;;;;5012548;28;19991;-76
2023/10/21 07:30:41;;;;;;;;;;;;;;;;;;5013283;28;20024;-76
2023/10/21 07:33:07;;;;;;;;;;;;;;;;;;5013929;28;20036;-77
2023/10/21 07:35:33;;;;;;;;;;;;;;;;;;5005792;28;19991;-78
2023/10/21 07:37:59;;;;;;;;;;;;;;;;;;5010416;28;19994;-76
2023/10/21 07:40:25;;;;;;;;;;;;;;;;;;5005049;28;20079;-79
2023/10/21 07:42:51;;;;;;;;;;;;;;;;;;5008208;28;20082;-78
2023/10/21 07:45:17;;;;;;;;;;;;;;;;;;5013288;28;20044;-83
2023/10/21 07:47:43;;;;;;;;;;;;;;;;;;5013202;28;20022;-87
2023/10/21 07:50:10;;;;;;;;;;;;;;;;;;5012991;28;20100;-81
2023/10/21 07:52:36;;;;;;;;;;;;;;;;;;5014374;28;20565;-84
2023/10/21 07:55:02;;;;;;;;;;;;;;;;;;5014969;28;20466;-78
2023/10/21 07:57:28;;;;;;;;;;;;;;;;;;5012819;28;20081;-78
2023/10/21 07:59:54;;;;;;;;;;;;;;;;;;5013548;28;20080;-79
2023/10/21 08:02:21;;;;;;;;;;;;;;;;;;5013832;28;19990;-70
2023/10/21 08:04:47;;;;;;;;;;;;;;;;;;5010281;28;20257;-70
2023/10/21 08:07:13;;;;;;;;;;;;;;;;;;5007943;28;20030;-70
2023/10/21 08:09:39;;;;;;;;;;;;;;;;;;5008696;28;20111;-70
2023/10/21 08:12:05;;;;;;;;;;;;;;;;;;5009878;28;20019;-70
2023/10/21 08:14:31;;;;;;;;;;;;;;;;;;5011783;28;20005;-73
2023/10/21 08:16:57;;;;;;;;;;;;;;;;;;5004465;28;19991;-73
2023/10/21 08:19:24;;;;;;;;;;;;;;;;;;5012824;28;19986;-72
2023/10/21 08:21:50;;;;;;;;;;;;;;;;;;5013345;28;19998;-72
2023/10/21 08:24:16;;;;;;;;;;;;;;;;;;5013269;28;20418;-72
2023/10/21 08:26:42;;;;;;;;;;;;;;;;;;5012348;28;19994;-70
2023/10/21 08:29:10;;;;;;;;;;;;;;;;;;5012784;28;20395;-76
2023/10/21 08:31:35;;;;;;;;;;;;;;;;;;5013246;28;20001;-72
2023/10/21 08:34:01;;;;;;;;;;;;;;;;;;5013059;28;19990;-71
2023/10/21 08:36:27;;;;;;;;;;;;;;;;;;5013008;28;19994;-75
2023/10/21 08:38:56;;;;;;;;;;;;;;;;;;5013139;28;19990;-81
2023/10/21 08:41:22;;;;;;;;;;;;;;;;;;5013202;28;20002;-76
2023/10/21 08:43:48;;;;;;;;;;;;;;;;;;5012265;28;22313;-74
2023/10/21 08:46:14;;;;;;;;;;;;;;;;;;5012696;28;20013;-75
2023/10/21 08:48:40;;;;;;;;;;;;;;;;;;5012767;28;20037;-78
2023/10/21 08:51:06;;;;;;;;;;;;;;;;;;5012600;28;20018;-78
2023/10/21 08:53:32;;;;;;;;;;;;;;;;;;5011445;28;19996;-77
2023/10/21 08:55:58;;;;;;;;;;;;;;;;;;5012624;28;20089;-75
2023/10/21 08:58:33;;;;;;;;;;;;;;;;;;5012824;28;20366;-71
2023/10/21 09:00:59;;;;;;;;;;;;;;;;;;5012464;28;20019;-69
2023/10/21 09:03:25;;;;;;;;;;;;;;;;;;5012498;28;20347;-70
2023/10/21 09:05:51;;;;;;;;;;;;;;;;;;5012397;28;20010;-78
2023/10/21 09:08:18;;;;;;;;;;;;;;;;;;5012092;28;20040;-74
2023/10/21 09:10:44;;;;;;;;;;;;;;;;;;5012607;28;20069;-76
2023/10/21 09:13:09;;;;;;;;;;;;;;;;;;5011909;28;19997;-73
2023/10/21 09:15:35;;;;;;;;;;;;;;;;;;5011143;28;20050;-73
2023/10/21 09:18:01;;;;;;;;;;;;;;;;;;5011777;28;20002;-75
2023/10/21 09:20:30;;;;;;;;;;;;;;;;;;5011579;28;20018;-76
2023/10/21 09:22:56;;;;;;;;;;;;;;;;;;5011691;28;19990;-74
2023/10/21 09:25:22;;;;;;;;;;;;;;;;;;5011777;28;19991;-74
2023/10/21 09:27:58;;;;;;;;;;;;;;;;;;5009892;28;19999;-74
2023/10/21 09:30:24;;;;;;;;;;;;;;;;;;5011454;28;20022;-75
2023/10/21 09:32:50;;;;;;;;;;;;;;;;;;5012446;28;19990;-74
2023/10/21 09:35:16;;;;;;;;;;;;;;;;;;5012230;28;19993;-76
2023/10/21 09:37:42;;;;;;;;;;;;;;;;;;5012158;28;19990;-75
2023/10/21 09:40:09;;;;;;;;;;;;;;;;;;5012192;28;19987;-74
2023/10/21 09:42:35;;;;;;;;;;;;;;;;;;5011807;28;20086;-79
2023/10/21 09:45:03;;;;;;;;;;;;;;;;;;5012560;28;20370;-82
2023/10/21 09:47:30;;;;;;;;;;;;;;;;;;5012262;28;20442;-82
2023/10/21 09:49:56;;;;;;;;;;;;;;;;;;5012775;28;20137;-82
2023/10/21 09:52:22;;;;;;;;;;;;;;;;;;5012545;28;20044;-83
2023/10/21 09:54:48;;;;;;;;;;;;;;;;;;5012114;28;19994;-82
2023/10/21 09:57:14;;;;;;;;;;;;;;;;;;5011607;28;19994;-84
2023/10/21 09:59:40;;;;;;;;;;;;;;;;;;5012155;28;20084;-85
2023/10/21 10:02:06;;;;;;;;;;;;;;;;;;5011624;28;19995;-82
2023/10/21 10:04:32;;;;;;;;;;;;;;;;;;5011699;28;20022;-75
2023/10/21 10:06:58;;;;;;;;;;;;;;;;;;5010934;28;20045;-74
2023/10/21 10:09:24;;;;;;;;;;;;;;;;;;5011574;28;20413;-74
2023/10/21 10:11:50;;;;;;;;;;;;;;;;;;5011690;28;19994;-73
2023/10/21 10:14:16;;;;;;;;;;;;;;;;;;5010994;28;19990;-74
2023/10/21 10:16:45;;;;;;;;;;;;;;;;;;5011881;28;20040;-73
2023/10/21 10:19:12;;;;;;;;;;;;;;;;;;5011616;28;20052;-75
2023/10/21 10:21:38;;;;;;;;;;;;;;;;;;5011735;28;19990;-75
2023/10/21 10:24:04;;;;;;;;;;;;;;;;;;5007344;28;19997;-74
2023/10/21 10:26:30;;;;;;;;;;;;;;;;;;5009704;28;19986;-73
2023/10/21 10:28:56;;;;;;;;;;;;;;;;;;5011232;28;20049;-73
2023/10/21 10:31:22;;;;;;;;;;;;;;;;;;5011397;28;20018;-72
2023/10/21 10:33:48;;;;;;;;;;;;;;;;;;5011693;28;20022;-72
2023/10/21 10:36:15;;;;;;;;;;;;;;;;;;5011395;28;19986;-72
2023/10/21 10:38:41;;;;;;;;;;;;;;;;;;5011288;28;20429;-71
2023/10/21 10:41:07;;;;;;;;;;;;;;;;;;5010557;28;20000;-70
2023/10/21 10:43:32;;;;;;;;;;;;;;;;;;5011578;28;19997;-72
2023/10/21 10:46:00;;;;;;;;;;;;;;;;;;5011504;28;19991;-71
2023/10/21 10:48:26;;;;;;;;;;;;;;;;;;5011363;28;20088;-72
2023/10/21 10:50:52;;;;;;;;;;;;;;;;;;5011162;28;20018;-81
2023/10/21 10:53:19;;;;;;;;;;;;;;;;;;5011453;28;19990;-76
2023/10/21 10:55:45;;;;;;;;;;;;;;;;;;5011160;28;19990;-75
2023/10/21 10:58:11;;;;;;;;;;;;;;;;;;5010833;28;20002;-75
2023/10/21 11:00:39;;;;;;;;;;;;;;;;;;5011294;28;20388;-76
2023/10/21 11:03:06;;;;;;;;;;;;;;;;;;5011075;28;20009;-74
2023/10/21 11:05:32;;;;;;;;;;;;;;;;;;5011164;28;20007;-74
2023/10/21 11:07:59;;;;;;;;;;;;;;;;;;5011202;28;20237;-74
2023/10/21 11:10:25;;;;;;;;;;;;;;;;;;5011139;28;20018;-75
2023/10/21 11:12:51;;;;;;;;;;;;;;;;;;5010411;28;20498;-73
2023/10/21 11:15:16;;;;;;;;;;;;;;;;;;5041823;28;19998;-76
2023/10/21 11:17:42;;;;;;;;;;;;;;;;;;5011240;28;19994;-78
2023/10/21 11:20:08;;;;;;;;;;;;;;;;;;5011067;28;20026;-73
2023/10/21 11:22:34;;;;;;;;;;;;;;;;;;5011103;28;19990;-73
2023/10/21 11:25:00;;;;;;;;;;;;;;;;;;5011880;28;20446;-73
2023/10/21 11:27:26;;;;;;;;;;;;;;;;;;5014586;28;19997;-74
2023/10/21 11:29:52;;;;;;;;;;;;;;;;;;5014690;28;20068;-75
2023/10/21 11:32:18;;;;;;;;;;;;;;;;;;5013740;28;20355;-74
2023/10/21 11:34:44;;;;;;;;;;;;;;;;;;5014426;28;20094;-74
2023/10/21 11:37:10;;;;;;;;;;;;;;;;;;5014444;28;20446;-75
2023/10/21 11:39:36;;;;;;;;;;;;;;;;;;5014300;28;19987;-75
2023/10/21 11:42:02;;;;;;;;;;;;;;;;;;5014389;28;19990;-74
2023/10/21 11:44:29;;;;;;;;;;;;;;;;;;5014190;28;20021;-74
2023/10/21 11:46:55;;;;;;;;;;;;;;;;;;5011480;28;20021;-72
2023/10/21 11:49:23;;;;;;;;;;;;;;;;;;5014166;28;19998;-74
2023/10/21 11:51:54;;;;;;;;;;;;;;;;;;5012912;28;20040;-76
2023/10/21 11:54:32;;;;;;;;;;;;;;;;;;5014084;28;20451;-74
2023/10/21 12:10:40;;;;;;;;;;;;;;;;;;5013911;28;20010;-74
2023/10/21 12:26:56;;;;;;;;;;;;;;;;;;5013830;28;19982;-77
2023/10/21 12:39:55;;;;;;;;;;;;;;;;;;5012112;28;19997;-75
2023/10/21 12:42:35;;;;;;;;;;;;;;;;;;5012370;28;20052;-75
2023/10/21 12:45:10;;;;;;;;;;;;;;;;;;5013576;28;19994;-77
2023/10/21 12:47:36;;;;;;;;;;;;;;;;;;5011157;28;20120;-77
2023/10/21 12:50:12;;;;;;;;;;;;;;;;;;5009777;28;20139;-75
2023/10/21 12:52:38;;;;;;;;;;;;;;;;;;5012819;28;19990;-76
2023/10/21 12:55:10;;;;;;;;;;;;;;;;;;5008290;28;20431;-83
2023/10/21 12:57:36;;;;;;;;;;;;;;;;;;5009607;28;20049;-81
2023/10/21 13:00:03;;;;;;;;;;;;;;;;;;5012959;28;20049;-79
2023/10/21 13:02:29;;;;;;;;;;;;;;;;;;5012897;28;19986;-76
2023/10/21 13:04:55;;;;;;;;;;;;;;;;;;5012763;28;20471;-77
2023/10/21 13:07:21;;;;;;;;;;;;;;;;;;5012401;28;19994;-76
2023/10/21 13:09:47;;;;;;;;;;;;;;;;;;5012852;28;20014;-76
2023/10/21 13:12:16;;;;;;;;;;;;;;;;;;5012792;28;19990;-75
2023/10/21 13:14:42;;;;;;;;;;;;;;;;;;5010342;28;20005;-69
2023/10/21 13:17:08;;;;;;;;;;;;;;;;;;5010573;28;19997;-70
2023/10/21 13:19:34;;;;;;;;;;;;;;;;;;5012075;28;20048;-70
2023/10/21 13:22:00;;;;;;;;;;;;;;;;;;5008035;28;19997;-69
2023/10/21 13:24:25;;;;;;;;;;;;;;;;;;5010960;28;20462;-70
2023/10/21 13:26:51;;;;;;;;;;;;;;;;;;5012377;28;19998;-71
2023/10/21 13:29:17;;;;;;;;;;;;;;;;;;5012057;28;19994;-72
2023/10/21 13:31:43;;;;;;;;;;;;;;;;;;5011255;28;20036;-74
2023/10/21 13:34:09;;;;;;;;;;;;;;;;;;5010333;28;19990;-75
2023/10/21 13:36:35;;;;;;;;;;;;;;;;;;5011771;28;20359;-76
2023/10/21 13:39:08;;;;;;;;;;;;;;;;;;5010397;28;19998;-70
2023/10/21 13:41:34;;;;;;;;;;;;;;;;;;5011113;28;20343;-72
2023/10/21 13:44:00;;;;;;;;;;;;;;;;;;5012318;28;20447;-68
2023/10/21 13:46:26;;;;;;;;;;;;;;;;;;5010756;28;20114;-70
2023/10/21 13:48:53;;;;;;;;;;;;;;;;;;5009877;28;20029;-70
2023/10/21 13:51:19;;;;;;;;;;;;;;;;;;5011785;28;20370;-73
2023/10/21 13:53:45;;;;;;;;;;;;;;;;;;5011307;28;19990;-69
2023/10/21 13:56:11;;;;;;;;;;;;;;;;;;5011870;28;19997;-71
2023/10/21 13:58:37;;;;;;;;;;;;;;;;;;5011695;28;19986;-71
2023/10/21 14:01:09;;;;;;;;;;;;;;;;;;5010107;28;19995;-73
2023/10/21 14:03:35;;;;;;;;;;;;;;;;;;5009894;28;20071;-75
2023/10/21 14:06:04;;;;;;;;;;;;;;;;;;5011712;28;20521;-73
2023/10/21 14:08:31;;;;;;;;;;;;;;;;;;5010931;28;20001;-70
2023/10/21 14:10:57;;;;;;;;;;;;;;;;;;5011670;28;20021;-69
2023/10/21 14:13:29;;;;;;;;;;;;;;;;;;5011107;28;19994;-70
2023/10/21 14:15:55;;;;;;;;;;;;;;;;;;5011000;28;19998;-70
2023/10/21 14:18:21;;;;;;;;;;;;;;;;;;5010832;28;19991;-69
2023/10/21 14:20:50;;;;;;;;;;;;;;;;;;5011425;28;20001;-70
2023/10/21 14:23:16;;;;;;;;;;;;;;;;;;5010495;28;20001;-69
2023/10/21 14:25:42;;;;;;;;;;;;;;;;;;5009241;28;20052;-69
2023/10/21 14:28:12;;;;;;;;;;;;;;;;;;5006485;28;19997;-68
2023/10/21 14:30:42;;;;;;;;;;;;;;;;;;5005464;28;20434;-69
2023/10/21 14:33:08;;;;;;;;;;;;;;;;;;5011328;28;20435;-68
2023/10/21 14:35:34;;;;;;;;;;;;;;;;;;5010290;28;19990;-70
2023/10/21 14:38:00;;;;;;;;;;;;;;;;;;5009258;28;20080;-68
2023/10/21 14:40:26;;;;;;;;;;;;;;;;;;5011309;28;20090;-70
2023/10/21 14:42:52;;;;;;;;;;;;;;;;;;5011346;28;20084;-69
2023/10/21 14:45:17;;;;;;;;;;;;;;;;;;5011691;28;19993;-69
2023/10/21 14:47:44;;;;;;;;;;;;;;;;;;5010589;28;20113;-68
2023/10/21 14:50:10;;;;;;;;;;;;;;;;;;5010468;28;20383;-69
2023/10/21 14:52:37;;;;;;;;;;;;;;;;;;5011416;28;19990;-69
2023/10/21 14:55:05;;;;;;;;;;;;;;;;;;5010011;28;20041;-69
2023/10/21 14:57:31;;;;;;;;;;;;;;;;;;5009801;28;20089;-68
2023/10/21 14:59:58;;;;;;;;;;;;;;;;;;5012626;28;20491;-64
2023/10/21 15:02:24;;;;;;;;;;;;;;;;;;5013266;28;19991;-63
2023/10/21 15:04:50;;;;;;;;;;;;;;;;;;5004505;28;20109;-62
2023/10/21 15:07:16;;;;;;;;;;;;;;;;;;5008621;28;19997;-61
2023/10/21 15:09:42;;;;;;;;;;;;;;;;;;5011658;28;20105;-62
2023/10/21 15:12:09;;;;;;;;;;;;;;;;;;5010787;28;20439;-61
2023/10/21 15:14:35;;;;;;;;;;;;;;;;;;5012581;28;20017;-65
2023/10/21 15:17:03;;;;;;;;;;;;;;;;;;5013918;28;19987;-61
2023/10/21 15:19:29;;;;;;;;;;;;;;;;;;5010162;28;19990;-62
2023/10/21 15:21:55;;;;;;;;;;;;;;;;;;5006653;28;19994;-62
2023/10/21 15:24:21;;;;;;;;;;;;;;;;;;5014205;28;19987;-62
2023/10/21 15:26:47;;;;;;;;;;;;;;;;;;5012383;28;20370;-60
2023/10/21 15:29:12;;;;;;;;;;;;;;;;;;5009317;28;19986;-61
2023/10/21 15:31:41;;;;;;;;;;;;;;;;;;5013207;28;20002;-62
2023/10/21 15:34:07;;;;;;;;;;;;;;;;;;5011150;28;19998;-62
2023/10/21 15:36:33;;;;;;;;;;;;;;;;;;5013146;28;19990;-62
2023/10/21 15:39:01;;;;;;;;;;;;;;;;;;5012831;28;20000;-61
2023/10/21 15:41:27;;;;;;;;;;;;;;;;;;5013782;28;19994;-61
2023/10/21 15:43:54;;;;;;;;;;;;;;;;;;5013945;28;19986;-60
2023/10/21 15:46:20;;;;;;;;;;;;;;;;;;5014061;28;20463;-60
2023/10/21 15:48:46;;;;;;;;;;;;;;;;;;5009283;28;20526;-64
2023/10/21 15:51:13;;;;;;;;;;;;;;;;;;5013622;28;20010;-60
2023/10/21 15:53:39;;;;;;;;;;;;;;;;;;5013139;28;20089;-60
2023/10/21 15:56:05;;;;;;;;;;;;;;;;;;5006615;28;20041;-62
2023/10/21 15:58:31;;;;;;;;;;;;;;;;;;5012417;28;20427;-61
2023/10/21 16:00:57;;;;;;;;;;;;;;;;;;5013472;28;20077;-59
2023/10/21 16:03:23;;;;;;;;;;;;;;;;;;5012070;28;19995;-61
2023/10/21 16:05:49;;;;;;;;;;;;;;;;;;5013660;28;20052;-60
2023/10/21 16:08:20;;;;;;;;;;;;;;;;;;5013439;28;19990;-62
2023/10/21 16:10:46;;;;;;;;;;;;;;;;;;5012328;28;20022;-60
2023/10/21 16:13:12;;;;;;;;;;;;;;;;;;5013580;28;20520;-60
2023/10/21 16:15:38;;;;;;;;;;;;;;;;;;5013576;28;19998;-70
2023/10/21 16:18:04;;;;;;;;;;;;;;;;;;5013624;28;19990;-70
2023/10/21 16:20:35;;;;;;;;;;;;;;;;;;5013871;28;19987;-69
2023/10/21 16:23:01;;;;;;;;;;;;;;;;;;5014148;28;19997;-71
2023/10/21 16:25:27;;;;;;;;;;;;;;;;;;5013792;28;19986;-70
2023/10/21 16:27:53;;;;;;;;;;;;;;;;;;5013679;28;20053;-71
2023/10/21 16:30:19;;;;;;;;;;;;;;;;;;5012222;28;20010;-71
2023/10/21 16:32:45;;;;;;;;;;;;;;;;;;5002288;28;19993;-72
2023/10/21 16:35:11;;;;;;;;;;;;;;;;;;5013475;28;20037;-71
2023/10/21 16:37:36;;;;;;;;;;;;;;;;;;5000486;28;20700;-71
2023/10/21 16:40:03;;;;;;;;;;;;;;;;;;5003792;28;20017;-71
2023/10/21 16:42:29;;;;;;;;;;;;;;;;;;5013369;28;19986;-72
2023/10/21 16:44:55;;;;;;;;;;;;;;;;;;5013155;28;20001;-73
2023/10/21 16:47:21;;;;;;;;;;;;;;;;;;5013075;28;20022;-73
2023/10/21 16:49:47;;;;;;;;;;;;;;;;;;5013162;28;20077;-73
2023/10/21 16:52:13;;;;;;;;;;;;;;;;;;5044847;28;19991;-72
2023/10/21 16:54:40;;;;;;;;;;;;;;;;;;5011592;28;20006;-71
2023/10/21 16:57:06;;;;;;;;;;;;;;;;;;5012387;28;20494;-73
2023/10/21 16:59:32;;;;;;;;;;;;;;;;;;5012990;28;19997;-70
2023/10/21 17:01:58;;;;;;;;;;;;;;;;;;5012905;28;20100;-71
2023/10/21 17:04:25;;;;;;;;;;;;;;;;;;5012868;28;20176;-72
2023/10/21 17:06:51;;;;;;;;;;;;;;;;;;5012955;28;20017;-70
2023/10/21 17:09:17;;;;;;;;;;;;;;;;;;5012771;28;19986;-71
2023/10/21 17:11:43;;;;;;;;;;;;;;;;;;5003223;28;19995;-70
2023/10/21 17:14:09;;;;;;;;;;;;;;;;;;5010347;28;19990;-71
2023/10/21 17:16:35;;;;;;;;;;;;;;;;;;5011943;28;20000;-72
2023/10/21 17:19:01;;;;;;;;;;;;;;;;;;5010533;28;20084;-72